sensor_id;sensor_type;location;lat;lon;timestamp;temperature;humidity
20690;DHT22;10504;48.762;8.996;2022-09-13T00:00:59;14.80;99.90
20690;DHT22;10504;48.762;8.996;2022-09-13T00:03:25;14.80;99.90
20690;DHT22;10504;48.762;8.996;2022-09-13T00:05:51;14.80;99.90
20690;DHT22;10504;48.762;8.996;2022-09-13T00:08:17;14.80;99.90
20690;DHT22;10504;48.762;8.996;2022-09-13T00:10:44;14.80;99.90
20690;DHT22;10504;48.762;8.996;2022-09-13T00:13:11;14.80;99.90
20690;DHT22;10504;48.762;8.996;2022-09-13T00:15:42;14.80;99.90
20690;DHT22;10504;48.762;8.996;2022-09-13T00:18:08;14.80;99.90
20690;DHT22;10504;48.762;8.996;2022-09-13T00:20:34;14.70;99.90
20690;DHT22;10504;48.762;8.996;2022-09-13T00:22:59;14.70;99.90
20690;DHT22;10504;48.762;8.996;2022-09-13T00:25:25;14.70;99.90
20690;DHT22;10504;48.762;8.996;2022-09-13T00:27:51;14.70;99.90
20690;DHT22;10504;48.762;8.996;2022-09-13T00:30:16;14.70;99.90
20690;DHT22;10504;48.762;8.996;2022-09-13T00:32:43;14.60;99.90
20690;DHT22;10504;48.762;8.996;2022-09-13T00:35:08;14.70;99.90
20690;DHT22;10504;48.762;8.996;2022-09-13T00:37:34;14.60;99.90
20690;DHT22;10504;48.762;8.996;2022-09-13T00:40:00;14.60;99.90
20690;DHT22;10504;48.762;8.996;2022-09-13T00:42:28;14.60;99.90
20690;DHT22;10504;48.762;8.996;2022-09-13T00:47:58;14.50;99.90
20690;DHT22;10504;48.762;8.996;2022-09-13T00:50:37;14.50;99.90
20690;DHT22;10504;48.762;8.996;2022-09-13T00:53:19;14.50;99.90
20690;DHT22;10504;48.762;8.996;2022-09-13T00:56:02;14.50;99.90
20690;DHT22;10504;48.762;8.996;2022-09-13T00:58:41;14.50;99.90
20690;DHT22;10504;48.762;8.996;2022-09-13T01:01:11;14.50;99.90
20690;DHT22;10504;48.762;8.996;2022-09-13T01:03:38;14.40;99.90
20690;DHT22;10504;48.762;8.996;2022-09-13T01:06:19;14.40;99.90
20690;DHT22;10504;48.762;8.996;2022-09-13T01:08:50;14.40;99.90
20690;DHT22;10504;48.762;8.996;2022-09-13T01:14:13;14.40;99.90
20690;DHT22;10504;48.762;8.996;2022-09-13T01:16:40;14.40;99.90
20690;DHT22;10504;48.762;8.996;2022-09-13T01:19:06;14.40;99.90
20690;DHT22;10504;48.762;8.996;2022-09-13T01:38:22;14.40;99.90
20690;DHT22;10504;48.762;8.996;2022-09-13T01:41:00;14.40;99.90
20690;DHT22;10504;48.762;8.996;2022-09-13T01:44:02;14.40;99.90
20690;DHT22;10504;48.762;8.996;2022-09-13T01:46:38;14.40;99.90
20690;DHT22;10504;48.762;8.996;2022-09-13T01:57:15;14.30;99.90
20690;DHT22;10504;48.762;8.996;2022-09-13T01:59:58;14.30;99.90
20690;DHT22;10504;48.762;8.996;2022-09-13T02:05:16;14.30;99.90
20690;DHT22;10504;48.762;8.996;2022-09-13T02:07:49;14.30;99.90
20690;DHT22;10504;48.762;8.996;2022-09-13T02:10:28;14.20;99.90
20690;DHT22;10504;48.762;8.996;2022-09-13T02:12:57;14.20;99.90
20690;DHT22;10504;48.762;8.996;2022-09-13T02:15:31;14.20;99.90
20690;DHT22;10504;48.762;8.996;2022-09-13T02:20:35;14.20;99.90
20690;DHT22;10504;48.762;8.996;2022-09-13T02:23:11;14.20;99.90
20690;DHT22;10504;48.762;8.996;2022-09-13T02:25:38;14.20;99.90
20690;DHT22;10504;48.762;8.996;2022-09-13T02:28:08;14.20;99.90
20690;DHT22;10504;48.762;8.996;2022-09-13T02:30:39;14.20;99.90
20690;DHT22;10504;48.762;8.996;2022-09-13T02:33:16;14.20;99.90
20690;DHT22;10504;48.762;8.996;2022-09-13T02:36:09;14.20;99.90
20690;DHT22;10504;48.762;8.996;2022-09-13T02:41:22;14.10;99.90
20690;DHT22;10504;48.762;8.996;2022-09-13T02:44:05;14.10;99.90
20690;DHT22;10504;48.762;8.996;2022-09-13T02:49:33;14.10;99.90
20690;DHT22;10504;48.762;8.996;2022-09-13T02:55:28;14.10;99.90
20690;DHT22;10504;48.762;8.996;2022-09-13T03:00:42;14.10;99.90
20690;DHT22;10504;48.762;8.996;2022-09-13T03:03:10;14.10;99.90
20690;DHT22;10504;48.762;8.996;2022-09-13T03:05:37;14.10;99.90
20690;DHT22;10504;48.762;8.996;2022-09-13T03:08:03;14.10;99.90
20690;DHT22;10504;48.762;8.996;2022-09-13T03:27:43;14.00;99.90
20690;DHT22;10504;48.762;8.996;2022-09-13T03:30:15;13.90;99.90
20690;DHT22;10504;48.762;8.996;2022-09-13T03:38:16;13.90;99.90
20690;DHT22;10504;48.762;8.996;2022-09-13T03:40:46;13.90;99.90
20690;DHT22;10504;48.762;8.996;2022-09-13T03:46:14;13.90;99.90
20690;DHT22;10504;48.762;8.996;2022-09-13T03:48:42;14.00;99.90
20690;DHT22;10504;48.762;8.996;2022-09-13T03:51:09;13.90;99.90
20690;DHT22;10504;48.762;8.996;2022-09-13T03:53:40;13.90;99.90
20690;DHT22;10504;48.762;8.996;2022-09-13T03:56:13;13.90;99.90
20690;DHT22;10504;48.762;8.996;2022-09-13T03:58:39;13.90;99.90
20690;DHT22;10504;48.762;8.996;2022-09-13T04:01:04;13.90;99.90
20690;DHT22;10504;48.762;8.996;2022-09-13T04:03:30;13.90;99.90
20690;DHT22;10504;48.762;8.996;2022-09-13T04:05:56;13.90;99.90
20690;DHT22;10504;48.762;8.996;2022-09-13T04:08:21;13.90;99.90
20690;DHT22;10504;48.762;8.996;2022-09-13T04:10:49;13.90;99.90
20690;DHT22;10504;48.762;8.996;2022-09-13T04:13:15;13.80;99.90
20690;DHT22;10504;48.762;8.996;2022-09-13T04:15:41;13.80;99.90
20690;DHT22;10504;48.762;8.996;2022-09-13T04:18:07;13.80;99.90
20690;DHT22;10504;48.762;8.996;2022-09-13T04:20:33;13.80;99.90
20690;DHT22;10504;48.762;8.996;2022-09-13T04:23:00;13.80;99.90
20690;DHT22;10504;48.762;8.996;2022-09-13T04:25:26;13.80;99.90
20690;DHT22;10504;48.762;8.996;2022-09-13T04:27:56;13.80;99.90
20690;DHT22;10504;48.762;8.996;2022-09-13T04:30:24;13.80;99.90
20690;DHT22;10504;48.762;8.996;2022-09-13T04:32:50;13.80;99.90
20690;DHT22;10504;48.762;8.996;2022-09-13T04:35:15;13.80;99.90
20690;DHT22;10504;48.762;8.996;2022-09-13T04:37:42;13.80;99.90
20690;DHT22;10504;48.762;8.996;2022-09-13T04:40:09;13.80;99.90
20690;DHT22;10504;48.762;8.996;2022-09-13T04:42:35;13.80;99.90
20690;DHT22;10504;48.762;8.996;2022-09-13T04:45:01;13.90;99.90
20690;DHT22;10504;48.762;8.996;2022-09-13T04:47:27;13.90;99.90
20690;DHT22;10504;48.762;8.996;2022-09-13T04:49:53;13.90;99.90
20690;DHT22;10504;48.762;8.996;2022-09-13T04:52:19;13.90;99.90
20690;DHT22;10504;48.762;8.996;2022-09-13T04:54:44;13.90;99.90
20690;DHT22;10504;48.762;8.996;2022-09-13T04:57:12;14.00;99.90
20690;DHT22;10504;48.762;8.996;2022-09-13T04:59:38;14.00;99.90
20690;DHT22;10504;48.762;8.996;2022-09-13T05:02:04;14.00;99.90
20690;DHT22;10504;48.762;8.996;2022-09-13T05:04:29;14.00;99.90
20690;DHT22;10504;48.762;8.996;2022-09-13T05:06:55;14.00;99.90
20690;DHT22;10504;48.762;8.996;2022-09-13T05:09:23;14.00;99.90
20690;DHT22;10504;48.762;8.996;2022-09-13T05:11:49;14.00;99.90
20690;DHT22;10504;48.762;8.996;2022-09-13T05:14:14;13.90;99.90
20690;DHT22;10504;48.762;8.996;2022-09-13T05:16:40;14.00;99.90
20690;DHT22;10504;48.762;8.996;2022-09-13T05:19:06;13.90;99.90
20690;DHT22;10504;48.762;8.996;2022-09-13T05:21:32;13.90;99.90
20690;DHT22;10504;48.762;8.996;2022-09-13T05:23:58;13.90;99.90
20690;DHT22;10504;48.762;8.996;2022-09-13T05:26:26;14.00;99.90
20690;DHT22;10504;48.762;8.996;2022-09-13T05:28:53;13.90;99.90
20690;DHT22;10504;48.762;8.996;2022-09-13T05:31:22;13.90;99.90
20690;DHT22;10504;48.762;8.996;2022-09-13T05:33:56;13.90;99.90
20690;DHT22;10504;48.762;8.996;2022-09-13T05:36:23;13.90;99.90
20690;DHT22;10504;48.762;8.996;2022-09-13T05:38:51;13.90;99.90
20690;DHT22;10504;48.762;8.996;2022-09-13T05:41:17;13.90;99.90
20690;DHT22;10504;48.762;8.996;2022-09-13T05:43:42;13.90;99.90
20690;DHT22;10504;48.762;8.996;2022-09-13T05:46:17;13.90;99.90
20690;DHT22;10504;48.762;8.996;2022-09-13T05:48:44;13.90;99.90
20690;DHT22;10504;48.762;8.996;2022-09-13T05:51:12;13.90;99.90
20690;DHT22;10504;48.762;8.996;2022-09-13T05:53:39;13.90;99.90
20690;DHT22;10504;48.762;8.996;2022-09-13T05:56:07;13.90;99.90
20690;DHT22;10504;48.762;8.996;2022-09-13T05:58:33;14.00;99.90
20690;DHT22;10504;48.762;8.996;2022-09-13T06:00:59;14.00;99.90
20690;DHT22;10504;48.762;8.996;2022-09-13T06:03:25;14.00;99.90
20690;DHT22;10504;48.762;8.996;2022-09-13T06:05:54;14.00;99.90
20690;DHT22;10504;48.762;8.996;2022-09-13T06:08:21;14.10;99.90
20690;DHT22;10504;48.762;8.996;2022-09-13T06:10:57;14.10;99.90
20690;DHT22;10504;48.762;8.996;2022-09-13T06:13:24;14.10;99.90
20690;DHT22;10504;48.762;8.996;2022-09-13T06:15:51;14.20;99.90
20690;DHT22;10504;48.762;8.996;2022-09-13T06:18:17;14.20;99.90
20690;DHT22;10504;48.762;8.996;2022-09-13T06:20:43;14.20;99.90
20690;DHT22;10504;48.762;8.996;2022-09-13T06:23:09;14.20;99.90
20690;DHT22;10504;48.762;8.996;2022-09-13T06:25:35;14.10;99.90
20690;DHT22;10504;48.762;8.996;2022-09-13T06:28:02;14.20;99.90
20690;DHT22;10504;48.762;8.996;2022-09-13T06:30:28;14.20;99.90
20690;DHT22;10504;48.762;8.996;2022-09-13T06:32:55;14.10;99.90
20690;DHT22;10504;48.762;8.996;2022-09-13T06:35:21;14.10;99.90
20690;DHT22;10504;48.762;8.996;2022-09-13T06:37:46;14.10;99.90
20690;DHT22;10504;48.762;8.996;2022-09-13T06:40:12;14.10;99.90
20690;DHT22;10504;48.762;8.996;2022-09-13T06:42:38;14.10;99.90
20690;DHT22;10504;48.762;8.996;2022-09-13T06:45:05;14.10;99.90
20690;DHT22;10504;48.762;8.996;2022-09-13T06:47:31;14.10;99.90
20690;DHT22;10504;48.762;8.996;2022-09-13T06:49:56;14.10;99.90
20690;DHT22;10504;48.762;8.996;2022-09-13T06:52:23;14.20;99.90
20690;DHT22;10504;48.762;8.996;2022-09-13T06:54:49;14.20;99.90
20690;DHT22;10504;48.762;8.996;2022-09-13T06:57:15;14.20;99.90
20690;DHT22;10504;48.762;8.996;2022-09-13T06:59:40;14.20;99.90
20690;DHT22;10504;48.762;8.996;2022-09-13T07:02:06;14.20;99.90
20690;DHT22;10504;48.762;8.996;2022-09-13T07:04:32;14.30;99.90
20690;DHT22;10504;48.762;8.996;2022-09-13T07:06:58;14.30;99.90
20690;DHT22;10504;48.762;8.996;2022-09-13T07:09:24;14.40;99.90
20690;DHT22;10504;48.762;8.996;2022-09-13T07:11:52;14.40;99.90
20690;DHT22;10504;48.762;8.996;2022-09-13T07:14:20;14.40;99.90
20690;DHT22;10504;48.762;8.996;2022-09-13T07:16:47;14.50;99.90
20690;DHT22;10504;48.762;8.996;2022-09-13T07:19:15;14.50;99.90
20690;DHT22;10504;48.762;8.996;2022-09-13T07:21:41;14.60;99.90
20690;DHT22;10504;48.762;8.996;2022-09-13T07:24:07;14.70;99.90
20690;DHT22;10504;48.762;8.996;2022-09-13T07:26:33;14.80;99.90
20690;DHT22;10504;48.762;8.996;2022-09-13T07:29:00;14.80;99.90
20690;DHT22;10504;48.762;8.996;2022-09-13T07:31:35;14.80;99.90
20690;DHT22;10504;48.762;8.996;2022-09-13T07:34:03;14.90;99.90
20690;DHT22;10504;48.762;8.996;2022-09-13T07:36:31;14.90;99.90
20690;DHT22;10504;48.762;8.996;2022-09-13T07:38:58;15.10;99.90
20690;DHT22;10504;48.762;8.996;2022-09-13T07:41:25;15.10;99.90
20690;DHT22;10504;48.762;8.996;2022-09-13T07:43:51;15.20;99.90
20690;DHT22;10504;48.762;8.996;2022-09-13T07:46:19;15.20;99.90
20690;DHT22;10504;48.762;8.996;2022-09-13T07:48:46;15.20;99.90
20690;DHT22;10504;48.762;8.996;2022-09-13T07:53:39;15.40;99.90
20690;DHT22;10504;48.762;8.996;2022-09-13T07:56:05;15.60;99.90
20690;DHT22;10504;48.762;8.996;2022-09-13T07:58:33;15.70;99.90
20690;DHT22;10504;48.762;8.996;2022-09-13T08:03:35;16.00;99.90
20690;DHT22;10504;48.762;8.996;2022-09-13T08:06:01;16.20;99.90
20690;DHT22;10504;48.762;8.996;2022-09-13T08:08:28;16.30;99.90
20690;DHT22;10504;48.762;8.996;2022-09-13T08:10:54;16.40;99.90
20690;DHT22;10504;48.762;8.996;2022-09-13T08:13:20;16.50;99.90
20690;DHT22;10504;48.762;8.996;2022-09-13T08:15:46;16.60;99.90
20690;DHT22;10504;48.762;8.996;2022-09-13T08:18:13;16.60;99.90
20690;DHT22;10504;48.762;8.996;2022-09-13T08:20:38;16.70;99.90
20690;DHT22;10504;48.762;8.996;2022-09-13T08:23:05;16.80;99.90
20690;DHT22;10504;48.762;8.996;2022-09-13T08:25:32;16.90;99.90
20690;DHT22;10504;48.762;8.996;2022-09-13T08:28:04;16.90;99.90
20690;DHT22;10504;48.762;8.996;2022-09-13T08:30:30;17.00;99.90
20690;DHT22;10504;48.762;8.996;2022-09-13T08:32:58;17.00;99.90
20690;DHT22;10504;48.762;8.996;2022-09-13T08:35:25;17.10;99.90
20690;DHT22;10504;48.762;8.996;2022-09-13T08:37:51;17.10;99.90
20690;DHT22;10504;48.762;8.996;2022-09-13T08:40:17;17.20;99.90
20690;DHT22;10504;48.762;8.996;2022-09-13T08:45:11;17.40;99.90
20690;DHT22;10504;48.762;8.996;2022-09-13T08:47:37;17.50;99.90
20690;DHT22;10504;48.762;8.996;2022-09-13T08:50:20;17.60;99.90
20690;DHT22;10504;48.762;8.996;2022-09-13T09:01:29;17.50;99.90
20690;DHT22;10504;48.762;8.996;2022-09-13T09:06:52;17.40;99.90
20690;DHT22;10504;48.762;8.996;2022-09-13T09:09:21;17.50;99.90
20690;DHT22;10504;48.762;8.996;2022-09-13T09:11:55;17.60;99.90
20690;DHT22;10504;48.762;8.996;2022-09-13T09:14:37;17.60;99.90
20690;DHT22;10504;48.762;8.996;2022-09-13T09:17:34;17.70;99.90
20690;DHT22;10504;48.762;8.996;2022-09-13T09:23:01;17.60;99.90
20690;DHT22;10504;48.762;8.996;2022-09-13T09:25:27;17.70;99.90
20690;DHT22;10504;48.762;8.996;2022-09-13T09:27:53;17.80;99.90
20690;DHT22;10504;48.762;8.996;2022-09-13T09:30:19;18.00;99.90
20690;DHT22;10504;48.762;8.996;2022-09-13T09:35:30;18.30;99.90
20690;DHT22;10504;48.762;8.996;2022-09-13T09:38:35;18.50;99.90
20690;DHT22;10504;48.762;8.996;2022-09-13T09:44:17;18.80;99.90
20690;DHT22;10504;48.762;8.996;2022-09-13T09:46:54;18.90;99.90
20690;DHT22;10504;48.762;8.996;2022-09-13T09:52:22;19.30;99.90
20690;DHT22;10504;48.762;8.996;2022-09-13T09:54:58;19.40;99.90
20690;DHT22;10504;48.762;8.996;2022-09-13T10:00:15;19.60;99.90
20690;DHT22;10504;48.762;8.996;2022-09-13T10:02:44;19.70;99.90
20690;DHT22;10504;48.762;8.996;2022-09-13T10:05:12;19.70;99.90
20690;DHT22;10504;48.762;8.996;2022-09-13T10:07:39;19.80;99.90
20690;DHT22;10504;48.762;8.996;2022-09-13T10:10:08;19.80;99.90
20690;DHT22;10504;48.762;8.996;2022-09-13T10:12:48;19.70;99.90
20690;DHT22;10504;48.762;8.996;2022-09-13T10:15:16;19.70;99.90
20690;DHT22;10504;48.762;8.996;2022-09-13T10:17:42;19.70;99.90
20690;DHT22;10504;48.762;8.996;2022-09-13T10:22:40;19.70;99.90
20690;DHT22;10504;48.762;8.996;2022-09-13T10:25:21;19.70;99.90
20690;DHT22;10504;48.762;8.996;2022-09-13T10:27:50;19.70;99.90
20690;DHT22;10504;48.762;8.996;2022-09-13T10:33:03;19.70;99.90
20690;DHT22;10504;48.762;8.996;2022-09-13T10:35:30;19.60;99.90
20690;DHT22;10504;48.762;8.996;2022-09-13T10:37:56;19.70;99.90
20690;DHT22;10504;48.762;8.996;2022-09-13T10:42:59;19.90;99.90
20690;DHT22;10504;48.762;8.996;2022-09-13T10:45:28;20.10;99.90
20690;DHT22;10504;48.762;8.996;2022-09-13T10:48:18;20.30;99.90
20690;DHT22;10504;48.762;8.996;2022-09-13T10:51:27;20.30;99.90
20690;DHT22;10504;48.762;8.996;2022-09-13T10:53:45;20.40;99.90
20690;DHT22;10504;48.762;8.996;2022-09-13T10:56:25;20.40;99.90
20690;DHT22;10504;48.762;8.996;2022-09-13T11:10:06;21.10;99.90
20690;DHT22;10504;48.762;8.996;2022-09-13T11:15:56;21.30;99.90
20690;DHT22;10504;48.762;8.996;2022-09-13T11:18:43;21.40;99.90
20690;DHT22;10504;48.762;8.996;2022-09-13T11:27:01;21.90;99.90
20690;DHT22;10504;48.762;8.996;2022-09-13T11:32:45;21.90;99.90
20690;DHT22;10504;48.762;8.996;2022-09-13T11:47:09;22.20;99.90
20690;DHT22;10504;48.762;8.996;2022-09-13T11:57:49;22.40;99.90
20690;DHT22;10504;48.762;8.996;2022-09-13T12:00:24;22.30;99.90
20690;DHT22;10504;48.762;8.996;2022-09-13T12:03:22;22.10;99.90
20690;DHT22;10504;48.762;8.996;2022-09-13T12:05:54;22.00;99.90
20690;DHT22;10504;48.762;8.996;2022-09-13T12:08:46;21.90;99.90
20690;DHT22;10504;48.762;8.996;2022-09-13T12:11:29;21.90;99.90
20690;DHT22;10504;48.762;8.996;2022-09-13T12:13:58;21.80;99.90
20690;DHT22;10504;48.762;8.996;2022-09-13T12:16:34;21.70;99.90
20690;DHT22;10504;48.762;8.996;2022-09-13T12:21:58;21.70;99.90
20690;DHT22;10504;48.762;8.996;2022-09-13T12:24:44;21.80;99.90
20690;DHT22;10504;48.762;8.996;2022-09-13T12:29:52;21.90;99.90
20690;DHT22;10504;48.762;8.996;2022-09-13T12:32:19;22.00;99.90
20690;DHT22;10504;48.762;8.996;2022-09-13T12:57:43;22.40;99.90
20690;DHT22;10504;48.762;8.996;2022-09-13T13:00:00;22.50;99.90
20690;DHT22;10504;48.762;8.996;2022-09-13T13:02:33;22.60;99.90
20690;DHT22;10504;48.762;8.996;2022-09-13T13:05:04;22.70;99.90
20690;DHT22;10504;48.762;8.996;2022-09-13T13:07:31;22.70;99.90
20690;DHT22;10504;48.762;8.996;2022-09-13T13:09:59;22.70;99.90
20690;DHT22;10504;48.762;8.996;2022-09-13T13:12:26;22.80;99.90
20690;DHT22;10504;48.762;8.996;2022-09-13T13:14:53;22.90;99.90
20690;DHT22;10504;48.762;8.996;2022-09-13T13:23:38;22.90;99.90
20690;DHT22;10504;48.762;8.996;2022-09-13T13:26:42;23.00;99.90
20690;DHT22;10504;48.762;8.996;2022-09-13T13:32:24;23.20;99.90
20690;DHT22;10504;48.762;8.996;2022-09-13T13:34:34;23.30;99.90
20690;DHT22;10504;48.762;8.996;2022-09-13T13:39:42;23.40;99.90
20690;DHT22;10504;48.762;8.996;2022-09-13T13:42:28;23.50;99.90
20690;DHT22;10504;48.762;8.996;2022-09-13T13:50:13;23.50;99.90
20690;DHT22;10504;48.762;8.996;2022-09-13T13:53:16;23.40;99.90
20690;DHT22;10504;48.762;8.996;2022-09-13T13:55:45;23.30;99.90
20690;DHT22;10504;48.762;8.996;2022-09-13T13:58:14;23.20;99.90
20690;DHT22;10504;48.762;8.996;2022-09-13T14:00:49;23.20;99.90
20690;DHT22;10504;48.762;8.996;2022-09-13T14:06:34;23.50;99.90
20690;DHT22;10504;48.762;8.996;2022-09-13T14:20:14;23.50;99.90
20690;DHT22;10504;48.762;8.996;2022-09-13T14:22:41;23.50;99.90
20690;DHT22;10504;48.762;8.996;2022-09-13T14:25:15;23.50;99.90
20690;DHT22;10504;48.762;8.996;2022-09-13T14:27:48;23.60;99.90
20690;DHT22;10504;48.762;8.996;2022-09-13T14:30:21;23.60;99.90
20690;DHT22;10504;48.762;8.996;2022-09-13T14:32:53;23.50;99.90
20690;DHT22;10504;48.762;8.996;2022-09-13T14:35:27;23.40;99.90
20690;DHT22;10504;48.762;8.996;2022-09-13T14:37:54;23.40;99.90
20690;DHT22;10504;48.762;8.996;2022-09-13T14:40:24;23.50;99.90
20690;DHT22;10504;48.762;8.996;2022-09-13T14:42:54;23.50;99.90
20690;DHT22;10504;48.762;8.996;2022-09-13T14:45:30;23.50;99.90
20690;DHT22;10504;48.762;8.996;2022-09-13T14:50:41;23.40;99.90
20690;DHT22;10504;48.762;8.996;2022-09-13T14:53:15;23.30;99.90
20690;DHT22;10504;48.762;8.996;2022-09-13T14:55:44;23.10;99.90
20690;DHT22;10504;48.762;8.996;2022-09-13T14:58:23;23.00;99.90
20690;DHT22;10504;48.762;8.996;2022-09-13T15:00:54;22.80;99.90
20690;DHT22;10504;48.762;8.996;2022-09-13T15:03:20;22.60;99.90
20690;DHT22;10504;48.762;8.996;2022-09-13T15:06:00;22.60;99.90
20690;DHT22;10504;48.762;8.996;2022-09-13T15:10:59;22.50;99.90
20690;DHT22;10504;48.762;8.996;2022-09-13T15:13:25;22.60;99.90
20690;DHT22;10504;48.762;8.996;2022-09-13T15:15:52;22.60;99.90
20690;DHT22;10504;48.762;8.996;2022-09-13T15:23:17;22.50;99.90
20690;DHT22;10504;48.762;8.996;2022-09-13T15:25:48;22.40;99.90
20690;DHT22;10504;48.762;8.996;2022-09-13T15:28:23;22.30;99.90
20690;DHT22;10504;48.762;8.996;2022-09-13T15:30:49;22.30;99.90
20690;DHT22;10504;48.762;8.996;2022-09-13T15:33:27;22.20;99.90
20690;DHT22;10504;48.762;8.996;2022-09-13T15:38:55;22.10;99.90
20690;DHT22;10504;48.762;8.996;2022-09-13T15:41:22;22.00;99.90
20690;DHT22;10504;48.762;8.996;2022-09-13T15:43:52;22.00;99.90
20690;DHT22;10504;48.762;8.996;2022-09-13T15:46:18;22.00;99.90
20690;DHT22;10504;48.762;8.996;2022-09-13T15:48:50;21.90;99.90
20690;DHT22;10504;48.762;8.996;2022-09-13T15:51:16;21.80;99.90
20690;DHT22;10504;48.762;8.996;2022-09-13T15:53:44;21.80;99.90
20690;DHT22;10504;48.762;8.996;2022-09-13T15:56:16;21.70;99.90
20690;DHT22;10504;48.762;8.996;2022-09-13T15:58:42;21.60;99.90
20690;DHT22;10504;48.762;8.996;2022-09-13T16:01:11;21.50;99.90
20690;DHT22;10504;48.762;8.996;2022-09-13T16:03:36;21.50;99.90
20690;DHT22;10504;48.762;8.996;2022-09-13T16:06:04;21.40;99.90
20690;DHT22;10504;48.762;8.996;2022-09-13T16:08:29;21.30;99.90
20690;DHT22;10504;48.762;8.996;2022-09-13T16:10:55;21.30;99.90
20690;DHT22;10504;48.762;8.996;2022-09-13T16:13:21;21.20;99.90
20690;DHT22;10504;48.762;8.996;2022-09-13T16:15:47;21.10;99.90
20690;DHT22;10504;48.762;8.996;2022-09-13T16:18:14;21.10;99.90
20690;DHT22;10504;48.762;8.996;2022-09-13T16:20:42;21.00;99.90
20690;DHT22;10504;48.762;8.996;2022-09-13T16:23:07;20.90;99.90
20690;DHT22;10504;48.762;8.996;2022-09-13T16:25:33;20.80;99.90
20690;DHT22;10504;48.762;8.996;2022-09-13T16:28:01;20.80;99.90
20690;DHT22;10504;48.762;8.996;2022-09-13T16:30:26;20.70;99.90
20690;DHT22;10504;48.762;8.996;2022-09-13T16:32:55;20.70;99.90
20690;DHT22;10504;48.762;8.996;2022-09-13T16:35:20;20.60;99.90
20690;DHT22;10504;48.762;8.996;2022-09-13T16:37:46;20.60;99.90
20690;DHT22;10504;48.762;8.996;2022-09-13T16:40:16;20.50;99.90
20690;DHT22;10504;48.762;8.996;2022-09-13T16:42:43;20.50;99.90
20690;DHT22;10504;48.762;8.996;2022-09-13T16:45:09;20.40;99.90
20690;DHT22;10504;48.762;8.996;2022-09-13T16:47:36;20.40;99.90
20690;DHT22;10504;48.762;8.996;2022-09-13T16:50:03;20.30;99.90
20690;DHT22;10504;48.762;8.996;2022-09-13T16:52:29;20.30;99.90
20690;DHT22;10504;48.762;8.996;2022-09-13T16:54:54;20.20;99.90
20690;DHT22;10504;48.762;8.996;2022-09-13T16:57:21;20.20;99.90
20690;DHT22;10504;48.762;8.996;2022-09-13T16:59:48;20.10;99.90
20690;DHT22;10504;48.762;8.996;2022-09-13T17:02:18;20.10;99.90
20690;DHT22;10504;48.762;8.996;2022-09-13T17:04:44;20.00;99.90
20690;DHT22;10504;48.762;8.996;2022-09-13T17:07:11;20.00;99.90
20690;DHT22;10504;48.762;8.996;2022-09-13T17:09:36;19.90;99.90
20690;DHT22;10504;48.762;8.996;2022-09-13T17:12:06;19.80;99.90
20690;DHT22;10504;48.762;8.996;2022-09-13T17:14:32;19.80;99.90
20690;DHT22;10504;48.762;8.996;2022-09-13T17:16:58;19.80;99.90
20690;DHT22;10504;48.762;8.996;2022-09-13T17:19:27;19.70;99.90
20690;DHT22;10504;48.762;8.996;2022-09-13T17:21:54;19.60;99.90
20690;DHT22;10504;48.762;8.996;2022-09-13T17:24:25;19.60;99.90
20690;DHT22;10504;48.762;8.996;2022-09-13T17:26:51;19.60;99.90
20690;DHT22;10504;48.762;8.996;2022-09-13T17:29:17;19.50;99.90
20690;DHT22;10504;48.762;8.996;2022-09-13T17:31:44;19.40;99.90
20690;DHT22;10504;48.762;8.996;2022-09-13T17:34:11;19.40;99.90
20690;DHT22;10504;48.762;8.996;2022-09-13T17:36:38;19.30;99.90
20690;DHT22;10504;48.762;8.996;2022-09-13T17:39:04;19.30;99.90
20690;DHT22;10504;48.762;8.996;2022-09-13T17:41:30;19.20;99.90
20690;DHT22;10504;48.762;8.996;2022-09-13T17:43:55;19.20;99.90
20690;DHT22;10504;48.762;8.996;2022-09-13T17:46:23;19.10;99.90
20690;DHT22;10504;48.762;8.996;2022-09-13T17:48:51;19.10;99.90
20690;DHT22;10504;48.762;8.996;2022-09-13T17:51:19;19.00;99.90
20690;DHT22;10504;48.762;8.996;2022-09-13T17:53:50;19.00;99.90
20690;DHT22;10504;48.762;8.996;2022-09-13T17:56:21;18.90;99.90
20690;DHT22;10504;48.762;8.996;2022-09-13T17:58:47;18.90;99.90
20690;DHT22;10504;48.762;8.996;2022-09-13T18:01:14;18.80;99.90
20690;DHT22;10504;48.762;8.996;2022-09-13T18:03:40;18.80;99.90
20690;DHT22;10504;48.762;8.996;2022-09-13T18:06:07;18.80;99.90
20690;DHT22;10504;48.762;8.996;2022-09-13T18:08:36;18.70;99.90
20690;DHT22;10504;48.762;8.996;2022-09-13T18:11:09;18.60;99.90
20690;DHT22;10504;48.762;8.996;2022-09-13T18:13:35;18.60;99.90
20690;DHT22;10504;48.762;8.996;2022-09-13T18:16:09;18.60;99.90
20690;DHT22;10504;48.762;8.996;2022-09-13T18:18:36;18.60;99.90
20690;DHT22;10504;48.762;8.996;2022-09-13T18:21:02;18.50;99.90
20690;DHT22;10504;48.762;8.996;2022-09-13T18:23:28;18.50;99.90
20690;DHT22;10504;48.762;8.996;2022-09-13T18:26:07;18.40;99.90
20690;DHT22;10504;48.762;8.996;2022-09-13T18:28:33;18.40;99.90
20690;DHT22;10504;48.762;8.996;2022-09-13T18:31:02;18.30;99.90
20690;DHT22;10504;48.762;8.996;2022-09-13T18:33:30;18.30;99.90
20690;DHT22;10504;48.762;8.996;2022-09-13T18:36:06;18.30;99.90
20690;DHT22;10504;48.762;8.996;2022-09-13T18:38:38;18.20;99.90
20690;DHT22;10504;48.762;8.996;2022-09-13T18:41:07;18.20;99.90
20690;DHT22;10504;48.762;8.996;2022-09-13T18:43:35;18.20;99.90
20690;DHT22;10504;48.762;8.996;2022-09-13T18:46:02;18.20;99.90
20690;DHT22;10504;48.762;8.996;2022-09-13T18:48:53;18.10;99.90
20690;DHT22;10504;48.762;8.996;2022-09-13T18:51:21;18.10;99.90
20690;DHT22;10504;48.762;8.996;2022-09-13T18:53:48;18.10;99.90
20690;DHT22;10504;48.762;8.996;2022-09-13T18:56:16;18.10;99.90
20690;DHT22;10504;48.762;8.996;2022-09-13T18:58:43;18.10;99.90
20690;DHT22;10504;48.762;8.996;2022-09-13T19:01:17;18.10;99.90
20690;DHT22;10504;48.762;8.996;2022-09-13T19:03:57;18.10;99.90
20690;DHT22;10504;48.762;8.996;2022-09-13T19:06:24;18.10;99.90
20690;DHT22;10504;48.762;8.996;2022-09-13T19:08:51;18.10;99.90
20690;DHT22;10504;48.762;8.996;2022-09-13T19:11:19;18.10;99.90
20690;DHT22;10504;48.762;8.996;2022-09-13T19:13:44;18.10;99.90
20690;DHT22;10504;48.762;8.996;2022-09-13T19:16:13;18.10;99.90
20690;DHT22;10504;48.762;8.996;2022-09-13T19:18:42;18.10;99.90
20690;DHT22;10504;48.762;8.996;2022-09-13T19:21:11;18.10;99.90
20690;DHT22;10504;48.762;8.996;2022-09-13T19:23:38;18.10;99.90
20690;DHT22;10504;48.762;8.996;2022-09-13T19:26:10;18.10;99.90
20690;DHT22;10504;48.762;8.996;2022-09-13T19:28:43;18.10;99.90
20690;DHT22;10504;48.762;8.996;2022-09-13T19:31:10;18.10;99.90
20690;DHT22;10504;48.762;8.996;2022-09-13T19:33:37;18.10;99.90
20690;DHT22;10504;48.762;8.996;2022-09-13T19:36:06;18.10;99.90